This is the latest recevied weather packets stored in our database for station/object KF0PEC-15. If no packets are shown the sender has not sent any weather packets the latest 10 day(s).
| Time | Temp. | Humidity | Pressure | Rain* | Wind** | Luminosity | Snow |
|---|---|---|---|---|---|---|---|
| 1777267600 | 7.78° C | 51% | 1007.8 hPa | 0 mm | - | 0 W/m² | - |
| 1777267025 | 8.33° C | 51% | 1007.5 hPa | 0 mm | - | 0 W/m² | - |
| 1777266505 | 8.33° C | 51% | 1007.2 hPa | 0 mm | - | 0 W/m² | - |
| 1777265919 | 8.33° C | 51% | 1006.9 hPa | 0 mm | - | 0 W/m² | - |
| 1777265429 | 8.89° C | 50% | 1006.7 hPa | 0 mm | - | 0 W/m² | - |
| 1777264940 | 8.89° C | 52% | 1007 hPa | 0 mm | - | 0 W/m² | - |
| 1777264389 | 8.89° C | 53% | 1007 hPa | 0 mm | - | 0 W/m² | - |
| 1777263835 | 8.89° C | 52% | 1006.8 hPa | 0 mm | - | 0 W/m² | - |
| 1777263260 | 9.44° C | 52% | 1006.7 hPa | 0 mm | - | 0 W/m² | - |
| 1777262665 | 9.44° C | 51% | 1006.3 hPa | 0 mm | - | 0 W/m² | - |
| 1777262065 | 9.44° C | 50% | 1006.2 hPa | 0 mm | - | 0 W/m² | - |
| 1777261475 | 9.44° C | 50% | 1006.3 hPa | 0 mm | - | 0 W/m² | - |
| 1777260990 | 9.44° C | 50% | 1006.4 hPa | 0 mm | - | 0 W/m² | - |
| 1777260465 | 9.44° C | 50% | 1006.1 hPa | 0 mm | - | 0 W/m² | - |
| 1777259889 | 10° C | 51% | 1005.9 hPa | 0 mm | - | 0 W/m² | - |
| 1777259349 | 10° C | 51% | 1005.4 hPa | 0 mm | - | 0 W/m² | - |
| 1777258845 | 10° C | 52% | 1005.3 hPa | 0 mm | - | 0 W/m² | - |
| 1777258305 | 10.56° C | 50% | 1004.8 hPa | 0 mm | - | 0 W/m² | - |
| 1777257759 | 10.56° C | 50% | 1004.6 hPa | 0 mm | - | 0 W/m² | - |
| 1777257229 | 11.11° C | 47% | 1003.7 hPa | 0 mm | - | 0 W/m² | - |
| 1777256635 | 11.11° C | 47% | 1003.9 hPa | 0 mm | - | 0 W/m² | - |
| 1777256105 | 11.11° C | 49% | 1003.6 hPa | 0 mm | - | 0 W/m² | - |
| 1777255529 | 11.11° C | 49% | 1003.4 hPa | 0 mm | - | 12 W/m² | - |
| 1777255025 | 11.11° C | 47% | 1003 hPa | 0 mm | - | 55 W/m² | - |
| 1777254520 | 11.11° C | 47% | 1003.1 hPa | 0 mm | - | 144 W/m² | - |
* Rain latest hour (hover to see other rain measurements)
** Current wind speed in m/s (hover to see current wind gust speed)